Time;durP1;ratioP1;P1;durP2;ratioP2;P2;SDS_P1;SDS_P2;PMS_P1;PMS_P2;Temp;Humidity;BMP_temperature;BMP_pressure;BME280_temperature;BME280_humidity;BME280_pressure;Samples;Min_cycle;Max_cycle;Signal;HPM_P1;HPM_P2
2024/01/03 00:02:02;;;;;;;1.02;0.70;;;13.50;99.90;;;;;;969129;146;27326;-84
2024/01/03 00:04:28;;;;;;;0.70;0.70;;;13.50;99.90;;;;;;969621;146;27343;-84
2024/01/03 00:06:55;;;;;;;2.53;0.63;;;13.50;99.90;;;;;;968825;147;27386;-84
2024/01/03 00:09:21;;;;;;;0.70;0.70;;;13.50;99.90;;;;;;969488;146;27306;-83
2024/01/03 00:11:48;;;;;;;0.62;0.62;;;13.50;99.90;;;;;;969599;147;27381;-83
2024/01/03 00:14:27;;;;;;;0.80;0.57;;;13.50;99.90;;;;;;969036;147;27310;-82
2024/01/03 00:16:53;;;;;;;1.45;1.10;;;13.50;99.90;;;;;;969570;147;27293;-83
2024/01/03 00:19:21;;;;;;;0.80;0.55;;;13.50;99.90;;;;;;969459;147;27743;-80
2024/01/03 00:21:46;;;;;;;0.57;0.57;;;13.50;99.90;;;;;;970317;147;27326;-84
2024/01/03 00:24:13;;;;;;;1.15;0.80;;;13.50;99.90;;;;;;969808;147;27360;-81
2024/01/03 00:26:39;;;;;;;2.15;0.80;;;13.50;99.90;;;;;;969242;147;27359;-83
2024/01/03 00:29:06;;;;;;;1.22;0.93;;;13.50;99.90;;;;;;974821;145;27344;-82
2024/01/03 00:31:38;;;;;;;0.95;0.70;;;13.50;99.90;;;;;;971183;146;27494;-80
2024/01/03 00:34:19;;;;;;;1.57;0.68;;;13.50;99.90;;;;;;967880;147;27347;-83
2024/01/03 00:36:49;;;;;;;1.52;1.35;;;13.50;99.90;;;;;;969458;147;27281;-82
2024/01/03 00:39:15;;;;;;;1.12;0.78;;;13.50;99.90;;;;;;969218;147;27345;-80
2024/01/03 00:41:42;;;;;;;1.55;0.98;;;13.60;99.90;;;;;;969544;147;27411;-82
2024/01/03 00:44:08;;;;;;;1.00;0.57;;;13.60;99.90;;;;;;969492;147;27298;-82
2024/01/03 00:46:35;;;;;;;1.15;1.00;;;13.60;99.90;;;;;;969952;147;27239;-80
2024/01/03 00:49:02;;;;;;;3.02;1.30;;;13.60;99.90;;;;;;969164;147;27417;-80
2024/01/03 00:51:28;;;;;;;1.37;0.90;;;13.60;99.90;;;;;;970209;147;27411;-81
2024/01/03 00:53:55;;;;;;;1.07;0.80;;;13.60;99.90;;;;;;969207;147;27372;-82
2024/01/03 00:56:21;;;;;;;1.80;1.10;;;13.60;99.90;;;;;;969916;147;27219;-81
2024/01/03 00:58:48;;;;;;;1.10;0.72;;;13.70;99.90;;;;;;969742;147;27282;-81
2024/01/03 01:01:15;;;;;;;1.70;0.90;;;13.70;99.90;;;;;;968718;147;27410;-84
2024/01/03 01:03:41;;;;;;;1.15;0.80;;;13.70;99.90;;;;;;969667;147;28224;-85
2024/01/03 01:06:08;;;;;;;0.40;0.40;;;13.70;99.90;;;;;;968875;147;27283;-83
2024/01/03 01:08:34;;;;;;;0.80;0.80;;;13.70;99.90;;;;;;969559;145;27323;-82
2024/01/03 01:11:01;;;;;;;0.60;0.60;;;13.70;99.90;;;;;;969639;147;27474;-81
2024/01/03 01:13:28;;;;;;;1.95;0.70;;;13.70;99.90;;;;;;969441;147;27475;-81
2024/01/03 01:15:54;;;;;;;0.88;0.60;;;13.70;99.90;;;;;;969875;147;27379;-81
2024/01/03 01:18:21;;;;;;;1.35;1.25;;;13.70;99.90;;;;;;968213;147;27311;-81
2024/01/03 01:20:47;;;;;;;2.40;1.00;;;13.70;99.90;;;;;;968794;147;27352;-81
2024/01/03 01:23:14;;;;;;;1.75;1.05;;;13.70;99.90;;;;;;975289;146;27873;-87
2024/01/03 01:25:40;;;;;;;1.22;0.60;;;13.70;99.90;;;;;;969141;147;27271;-83
2024/01/03 01:28:07;;;;;;;1.55;1.30;;;13.70;99.90;;;;;;969377;147;27328;-83
2024/01/03 01:30:34;;;;;;;0.93;0.78;;;13.60;99.90;;;;;;969924;147;27326;-82
2024/01/03 01:33:00;;;;;;;2.87;0.88;;;13.50;99.90;;;;;;969982;148;27353;-80
2024/01/03 01:35:27;;;;;;;3.12;1.20;;;13.40;99.90;;;;;;969384;146;27306;-83
2024/01/03 01:37:53;;;;;;;1.40;1.02;;;13.40;99.90;;;;;;974970;147;27366;-82
2024/01/03 01:40:20;;;;;;;1.98;0.95;;;13.30;99.90;;;;;;973710;147;27279;-83
2024/01/03 01:42:47;;;;;;;1.67;1.05;;;13.20;99.90;;;;;;974625;146;27335;-80
2024/01/03 01:45:13;;;;;;;1.17;0.75;;;13.10;99.90;;;;;;969528;147;27422;-78
2024/01/03 01:47:40;;;;;;;1.30;0.70;;;13.10;99.90;;;;;;969491;147;27573;-78
2024/01/03 01:50:07;;;;;;;1.40;1.00;;;13.00;99.90;;;;;;968981;147;27485;-78
2024/01/03 01:52:33;;;;;;;0.57;0.57;;;12.90;99.90;;;;;;969852;147;27293;-78
2024/01/03 01:55:00;;;;;;;0.90;0.70;;;12.80;99.90;;;;;;969166;147;27224;-80
2024/01/03 01:57:26;;;;;;;1.00;0.80;;;12.80;99.90;;;;;;969527;147;27325;-79
2024/01/03 01:59:53;;;;;;;0.50;0.40;;;12.70;99.90;;;;;;974218;147;27351;-78
2024/01/03 02:02:19;;;;;;;0.80;0.50;;;12.70;99.90;;;;;;975057;146;27374;-78
2024/01/03 02:04:46;;;;;;;0.42;0.42;;;12.60;99.90;;;;;;975153;146;27312;-78
2024/01/03 02:07:13;;;;;;;1.00;0.50;;;12.50;99.90;;;;;;974370;146;27332;-78
2024/01/03 02:09:39;;;;;;;1.10;0.60;;;12.50;99.90;;;;;;969506;147;27362;-77
2024/01/03 02:12:06;;;;;;;1.37;0.60;;;12.40;99.90;;;;;;969579;147;27319;-79
2024/01/03 02:14:32;;;;;;;1.40;0.50;;;12.40;99.90;;;;;;970237;147;27267;-79
2024/01/03 02:16:59;;;;;;;0.45;0.45;;;12.40;99.90;;;;;;969922;147;27403;-80
2024/01/03 02:19:26;;;;;;;0.93;0.60;;;12.40;99.90;;;;;;969075;147;27417;-78
2024/01/03 02:21:52;;;;;;;1.33;0.70;;;12.30;99.90;;;;;;970000;147;27359;-78
2024/01/03 02:24:19;;;;;;;0.40;0.40;;;12.30;99.90;;;;;;969143;147;27258;-77
2024/01/03 02:26:45;;;;;;;1.60;0.60;;;12.30;99.90;;;;;;969543;147;27247;-79
2024/01/03 02:29:12;;;;;;;0.63;0.63;;;12.40;99.90;;;;;;969628;147;27345;-79
2024/01/03 02:31:40;;;;;;;1.27;0.70;;;12.40;99.90;;;;;;970082;148;27326;-79
2024/01/03 02:34:05;;;;;;;0.85;0.53;;;12.40;99.90;;;;;;969818;147;27306;-78
2024/01/03 02:36:32;;;;;;;1.52;1.07;;;12.40;99.90;;;;;;969771;147;27347;-79
2024/01/03 02:38:58;;;;;;;0.53;0.53;;;12.50;99.90;;;;;;969853;147;27419;-81
2024/01/03 02:41:25;;;;;;;0.90;0.70;;;12.50;99.90;;;;;;969584;147;27380;-78
2024/01/03 02:43:51;;;;;;;2.53;0.73;;;12.50;99.90;;;;;;969424;147;27275;-79
2024/01/03 02:46:18;;;;;;;1.57;0.70;;;12.50;99.90;;;;;;968921;147;27281;-79
2024/01/03 02:48:45;;;;;;;1.00;0.85;;;12.50;99.90;;;;;;973796;146;27303;-80
2024/01/03 02:51:17;;;;;;;1.85;0.95;;;12.50;99.90;;;;;;970437;146;27394;-78
2024/01/03 02:53:45;;;;;;;2.23;0.90;;;12.50;99.90;;;;;;969543;147;27360;-79
2024/01/03 02:56:10;;;;;;;2.35;0.80;;;12.60;99.90;;;;;;974408;147;27322;-78
2024/01/03 02:58:37;;;;;;;3.47;1.00;;;12.60;99.90;;;;;;975326;145;27214;-78
2024/01/03 03:01:06;;;;;;;1.50;1.07;;;12.60;99.90;;;;;;975164;146;27398;-78
2024/01/03 03:03:33;;;;;;;1.10;1.00;;;12.70;99.90;;;;;;969618;147;27301;-78
2024/01/03 03:06:00;;;;;;;2.00;1.07;;;12.70;99.90;;;;;;969777;147;27267;-77
2024/01/03 03:08:26;;;;;;;2.57;0.93;;;12.80;99.90;;;;;;969107;146;27290;-78
2024/01/03 03:10:53;;;;;;;2.02;1.27;;;12.80;99.90;;;;;;969700;147;27426;-78
2024/01/03 03:13:19;;;;;;;4.90;1.67;;;12.90;99.90;;;;;;969903;147;27382;-78
2024/01/03 03:15:47;;;;;;;3.00;1.07;;;12.90;99.90;;;;;;958161;147;27348;-78
2024/01/03 03:18:12;;;;;;;2.62;1.25;;;12.90;99.90;;;;;;957150;148;27355;-77
2024/01/03 03:20:39;;;;;;;1.85;0.78;;;13.00;99.90;;;;;;958232;148;27426;-80
2024/01/03 03:23:06;;;;;;;2.35;1.00;;;13.00;99.90;;;;;;958015;147;27355;-77
2024/01/03 03:25:32;;;;;;;1.95;1.10;;;13.00;99.90;;;;;;956892;148;27367;-78
2024/01/03 03:27:59;;;;;;;2.75;1.50;;;13.10;99.90;;;;;;958068;148;27287;-78
2024/01/03 03:30:26;;;;;;;2.33;1.15;;;13.10;99.90;;;;;;959242;148;27367;-80
2024/01/03 03:32:52;;;;;;;1.55;1.10;;;13.10;99.90;;;;;;958088;148;27423;-80
2024/01/03 03:35:19;;;;;;;1.87;1.00;;;13.10;99.90;;;;;;957871;148;27259;-78
2024/01/03 03:37:45;;;;;;;0.88;0.70;;;13.10;99.90;;;;;;958516;148;27241;-77
2024/01/03 03:40:12;;;;;;;1.60;0.72;;;13.10;99.90;;;;;;958249;148;27379;-80
2024/01/03 03:42:38;;;;;;;0.72;0.65;;;13.10;99.90;;;;;;958513;148;27344;-77
2024/01/03 03:45:05;;;;;;;1.12;0.72;;;13.00;99.90;;;;;;957414;147;27241;-77
2024/01/03 03:47:32;;;;;;;0.98;0.55;;;12.90;99.90;;;;;;955416;148;27304;-82
2024/01/03 03:49:58;;;;;;;1.33;0.93;;;12.90;99.90;;;;;;957956;148;27299;-81
2024/01/03 03:52:25;;;;;;;0.60;0.50;;;12.80;99.90;;;;;;958005;148;27274;-80
2024/01/03 03:54:51;;;;;;;1.43;0.73;;;12.80;99.90;;;;;;959642;146;27399;-84
2024/01/03 03:57:18;;;;;;;1.10;0.90;;;12.70;99.90;;;;;;955906;148;27324;-83
2024/01/03 03:59:44;;;;;;;0.73;0.70;;;12.70;99.90;;;;;;958127;148;27396;-82
2024/01/03 04:02:11;;;;;;;0.72;0.70;;;12.70;99.90;;;;;;957791;148;27248;-82
2024/01/03 04:04:38;;;;;;;0.87;0.87;;;12.60;99.90;;;;;;957195;148;27314;-82
2024/01/03 04:07:04;;;;;;;1.43;1.00;;;12.60;99.90;;;;;;959168;147;27287;-78
2024/01/03 04:09:31;;;;;;;3.10;0.97;;;12.60;99.90;;;;;;957512;148;27330;-77
2024/01/03 04:11:57;;;;;;;1.53;0.70;;;12.50;99.90;;;;;;957776;148;27385;-78
2024/01/03 04:14:24;;;;;;;1.70;1.20;;;12.50;99.90;;;;;;959615;147;27458;-79
2024/01/03 04:16:51;;;;;;;0.97;0.90;;;12.50;99.90;;;;;;969820;146;27312;-79
2024/01/03 04:19:17;;;;;;;2.58;1.17;;;12.50;99.90;;;;;;968266;147;27347;-79
2024/01/03 04:21:44;;;;;;;2.45;1.17;;;12.50;99.90;;;;;;970185;146;27254;-79
2024/01/03 04:24:10;;;;;;;1.30;0.90;;;12.50;99.90;;;;;;969526;148;27824;-80
2024/01/03 04:26:37;;;;;;;1.62;1.02;;;12.50;99.90;;;;;;969570;146;27418;-79
2024/01/03 04:29:04;;;;;;;2.10;1.10;;;12.50;99.90;;;;;;969539;147;27244;-79
2024/01/03 04:31:30;;;;;;;2.60;1.30;;;12.50;99.90;;;;;;969922;147;27263;-79
2024/01/03 04:33:57;;;;;;;5.17;1.23;;;12.50;99.90;;;;;;969364;146;27385;-78
2024/01/03 04:36:23;;;;;;;3.17;1.12;;;12.60;99.90;;;;;;969723;147;27426;-80
2024/01/03 04:38:50;;;;;;;2.72;1.17;;;12.60;99.90;;;;;;968470;148;28040;-77
2024/01/03 04:41:16;;;;;;;2.50;1.12;;;12.60;99.90;;;;;;969395;148;27270;-76
2024/01/03 04:43:43;;;;;;;1.50;0.95;;;12.60;99.90;;;;;;969910;147;27277;-77
2024/01/03 04:46:10;;;;;;;3.00;0.98;;;12.70;99.90;;;;;;969209;148;28104;-79
2024/01/03 04:48:36;;;;;;;2.58;1.37;;;12.70;99.90;;;;;;970191;147;27407;-77
2024/01/03 04:51:03;;;;;;;5.05;1.37;;;12.70;99.90;;;;;;969320;148;27361;-77
2024/01/03 04:53:31;;;;;;;1.90;1.43;;;12.70;99.90;;;;;;969039;147;27264;-77
2024/01/03 04:55:56;;;;;;;6.53;1.50;;;12.80;99.90;;;;;;969681;147;27285;-80
2024/01/03 04:58:23;;;;;;;4.87;1.82;;;12.80;99.90;;;;;;968978;146;27318;-80
2024/01/03 05:00:49;;;;;;;4.25;1.25;;;12.80;99.90;;;;;;969388;147;27348;-83
2024/01/03 05:03:16;;;;;;;1.42;1.00;;;12.80;99.90;;;;;;969282;147;27309;-83
2024/01/03 05:05:42;;;;;;;3.62;1.40;;;12.80;99.90;;;;;;969708;147;27618;-82
2024/01/03 05:08:09;;;;;;;3.60;1.60;;;12.90;99.90;;;;;;969552;145;27354;-83
2024/01/03 05:10:36;;;;;;;4.58;1.40;;;12.90;99.90;;;;;;970035;148;27415;-84
2024/01/03 05:13:02;;;;;;;1.55;1.22;;;12.90;99.90;;;;;;969671;148;27676;-83
2024/01/03 05:15:29;;;;;;;3.75;1.15;;;12.90;99.90;;;;;;968758;146;27419;-84
2024/01/03 05:17:55;;;;;;;4.15;1.20;;;12.90;99.90;;;;;;970028;146;27266;-81
2024/01/03 05:20:22;;;;;;;4.08;1.27;;;12.90;99.90;;;;;;969746;147;27411;-77
2024/01/03 05:22:48;;;;;;;2.63;1.20;;;12.90;99.90;;;;;;969113;147;27791;-79
2024/01/03 05:25:15;;;;;;;2.70;1.30;;;12.90;99.90;;;;;;968437;147;27290;-79
2024/01/03 05:27:42;;;;;;;3.98;1.57;;;12.90;99.90;;;;;;969923;147;27360;-80
2024/01/03 05:30:08;;;;;;;1.93;1.30;;;12.90;99.90;;;;;;970056;146;27326;-83
2024/01/03 05:32:35;;;;;;;3.65;1.22;;;12.80;99.90;;;;;;969876;146;27410;-79
2024/01/03 05:35:01;;;;;;;2.30;1.23;;;12.80;99.90;;;;;;969438;147;27379;-79
2024/01/03 05:37:28;;;;;;;4.17;1.50;;;12.70;99.90;;;;;;968498;147;27319;-79
2024/01/03 05:39:55;;;;;;;2.23;1.20;;;12.70;99.90;;;;;;969525;146;27360;-82
2024/01/03 05:42:23;;;;;;;3.50;1.67;;;12.70;99.90;;;;;;969479;148;27470;-77
2024/01/03 05:44:48;;;;;;;2.22;1.40;;;12.70;99.90;;;;;;969692;147;27305;-77
2024/01/03 05:47:14;;;;;;;3.08;1.77;;;12.60;99.90;;;;;;969206;146;27318;-78
2024/01/03 05:49:41;;;;;;;5.57;1.70;;;12.60;99.90;;;;;;969562;147;27279;-80
2024/01/03 05:52:08;;;;;;;4.92;1.72;;;12.60;99.90;;;;;;970294;147;27341;-78
2024/01/03 05:54:35;;;;;;;3.60;1.50;;;12.60;99.90;;;;;;969199;148;27329;-78
2024/01/03 05:57:02;;;;;;;3.20;1.77;;;12.60;99.90;;;;;;969998;147;27295;-78
2024/01/03 05:59:28;;;;;;;7.50;2.05;;;12.60;99.90;;;;;;969042;146;27291;-78
2024/01/03 06:01:54;;;;;;;4.22;1.55;;;12.60;99.90;;;;;;969612;148;27322;-80
2024/01/03 06:04:21;;;;;;;5.17;1.70;;;12.60;99.90;;;;;;968819;146;27302;-80
2024/01/03 06:06:47;;;;;;;3.97;1.77;;;12.70;99.90;;;;;;969596;147;27300;-80
2024/01/03 06:09:14;;;;;;;3.77;1.40;;;12.70;99.90;;;;;;969867;147;27306;-85
2024/01/03 06:11:41;;;;;;;4.20;1.70;;;12.80;99.90;;;;;;970052;146;27392;-81
2024/01/03 06:14:07;;;;;;;5.60;1.90;;;12.80;99.90;;;;;;969649;147;27306;-81
2024/01/03 06:16:34;;;;;;;6.07;1.70;;;12.80;99.90;;;;;;969457;148;27378;-82
2024/01/03 06:19:00;;;;;;;4.07;1.63;;;12.90;99.90;;;;;;970950;147;27231;-83
2024/01/03 06:21:27;;;;;;;5.20;2.07;;;12.90;99.90;;;;;;969184;147;27320;-81
2024/01/03 06:23:54;;;;;;;4.33;1.50;;;12.90;99.90;;;;;;974492;146;27401;-80
2024/01/03 06:26:21;;;;;;;8.03;1.90;;;13.00;99.90;;;;;;969924;148;27418;-83
2024/01/03 06:28:47;;;;;;;4.90;1.70;;;13.00;99.90;;;;;;969500;147;27278;-84
2024/01/03 06:31:13;;;;;;;4.33;1.73;;;13.00;99.90;;;;;;969147;147;27326;-83
2024/01/03 06:33:40;;;;;;;3.90;1.50;;;13.00;99.90;;;;;;969844;147;27262;-83
2024/01/03 06:36:07;;;;;;;3.77;1.70;;;13.00;99.90;;;;;;968740;147;27329;-83
2024/01/03 06:38:33;;;;;;;4.05;1.52;;;13.00;99.90;;;;;;969703;148;28504;-82
2024/01/03 06:41:00;;;;;;;3.40;1.47;;;13.00;99.90;;;;;;970083;148;27347;-83
2024/01/03 06:43:26;;;;;;;3.58;1.50;;;13.00;99.90;;;;;;969578;148;27279;-82
2024/01/03 06:45:53;;;;;;;2.98;1.45;;;13.00;99.90;;;;;;969835;147;27307;-81
2024/01/03 06:48:19;;;;;;;2.60;1.50;;;13.00;99.90;;;;;;969307;147;27332;-81
2024/01/03 06:50:46;;;;;;;5.13;1.57;;;13.00;99.90;;;;;;969829;147;27371;-82
2024/01/03 06:53:13;;;;;;;4.97;1.97;;;13.00;99.90;;;;;;969445;148;27275;-82
2024/01/03 06:55:39;;;;;;;5.10;1.80;;;13.00;99.90;;;;;;969719;147;27271;-80
2024/01/03 06:58:06;;;;;;;4.40;1.77;;;13.00;99.90;;;;;;970269;148;27309;-84
2024/01/03 07:00:32;;;;;;;3.33;1.70;;;13.10;99.90;;;;;;969010;147;27374;-83
2024/01/03 07:02:59;;;;;;;3.92;1.67;;;13.10;99.90;;;;;;969402;147;27299;-83
2024/01/03 07:05:26;;;;;;;4.25;1.75;;;13.10;99.90;;;;;;971664;146;27251;-82
2024/01/03 07:07:52;;;;;;;2.20;1.37;;;13.20;99.90;;;;;;970054;148;27333;-83
2024/01/03 07:10:19;;;;;;;3.35;1.82;;;13.10;99.60;;;;;;969732;147;27320;-83
2024/01/03 07:12:45;;;;;;;3.95;1.80;;;13.10;98.90;;;;;;969460;147;27351;-82
2024/01/03 07:15:17;;;;;;;5.67;1.87;;;13.10;99.20;;;;;;970223;147;27277;-83
2024/01/03 07:17:39;;;;;;;6.08;2.20;;;13.10;99.00;;;;;;969613;147;27426;-80
2024/01/03 07:20:05;;;;;;;5.60;2.45;;;13.10;98.80;;;;;;969955;146;27415;-78
2024/01/03 07:22:32;;;;;;;6.17;1.83;;;13.00;99.00;;;;;;969422;148;27299;-78
2024/01/03 07:24:58;;;;;;;6.72;2.00;;;13.00;99.30;;;;;;969860;147;27283;-79
2024/01/03 07:27:25;;;;;;;5.28;1.87;;;12.90;99.70;;;;;;969016;148;27285;-79
2024/01/03 07:29:53;;;;;;;3.60;1.70;;;12.90;99.90;;;;;;969982;146;27798;-78
2024/01/03 07:32:18;;;;;;;4.90;1.87;;;12.90;99.90;;;;;;969126;147;27301;-78
2024/01/03 07:34:45;;;;;;;4.33;1.62;;;12.90;99.90;;;;;;968926;147;27381;-79
2024/01/03 07:37:11;;;;;;;4.45;1.77;;;13.00;99.90;;;;;;968708;146;27342;-78
2024/01/03 07:39:38;;;;;;;3.93;1.80;;;13.00;99.90;;;;;;969362;147;27255;-81
2024/01/03 07:42:06;;;;;;;5.03;2.02;;;13.10;99.90;;;;;;969433;148;27516;-83
2024/01/03 07:44:35;;;;;;;4.08;2.00;;;13.10;99.90;;;;;;969862;147;27770;-84
2024/01/03 07:46:58;;;;;;;3.62;1.87;;;13.20;99.90;;;;;;969636;147;27388;-82
2024/01/03 07:49:24;;;;;;;7.40;2.10;;;13.20;99.90;;;;;;969514;146;27350;-83
2024/01/03 07:51:51;;;;;;;2.72;1.60;;;13.20;99.90;;;;;;969745;147;27447;-83
2024/01/03 07:54:17;;;;;;;4.55;1.75;;;13.30;99.90;;;;;;968606;147;27314;-82
2024/01/03 07:56:44;;;;;;;4.35;1.67;;;13.30;99.90;;;;;;969493;147;27363;-76
2024/01/03 07:59:11;;;;;;;4.92;1.52;;;13.30;99.90;;;;;;969181;146;27372;-82
2024/01/03 08:01:37;;;;;;;3.17;1.40;;;13.40;99.90;;;;;;969624;148;27349;-80
2024/01/03 08:04:04;;;;;;;4.78;1.20;;;13.40;99.90;;;;;;969719;147;27692;-82
2024/01/03 08:06:30;;;;;;;4.80;1.65;;;13.50;99.90;;;;;;968951;146;27355;-82
2024/01/03 08:08:57;;;;;;;4.30;1.80;;;13.50;99.90;;;;;;969908;145;27415;-83
2024/01/03 08:11:24;;;;;;;4.35;1.47;;;13.50;99.90;;;;;;931965;153;27387;-82
2024/01/03 08:13:50;;;;;;;5.75;3.22;;;13.60;99.90;;;;;;920025;151;27355;-82
2024/01/03 08:16:17;;;;;;;3.92;1.82;;;13.60;99.70;;;;;;936839;152;27326;-82
2024/01/03 08:18:44;;;;;;;3.65;1.72;;;13.60;99.40;;;;;;937232;152;27398;-83
2024/01/03 08:21:10;;;;;;;2.95;2.33;;;13.70;99.60;;;;;;937108;151;27359;-82
2024/01/03 08:23:37;;;;;;;1.80;1.15;;;13.60;99.60;;;;;;936648;152;27342;-81
2024/01/03 08:26:09;;;;;;;4.10;1.30;;;13.70;99.50;;;;;;931189;151;27502;-83
2024/01/03 08:28:40;;;;;;;2.60;1.32;;;13.70;99.60;;;;;;941895;151;27225;-78
2024/01/03 08:31:05;;;;;;;3.15;1.42;;;13.70;99.80;;;;;;937920;152;27433;-80
2024/01/03 08:33:31;;;;;;;1.75;1.35;;;13.70;99.90;;;;;;933964;151;27462;-78
2024/01/03 08:35:58;;;;;;;2.00;1.35;;;13.70;99.90;;;;;;932388;153;27357;-78
2024/01/03 08:38:25;;;;;;;1.85;1.55;;;13.70;99.90;;;;;;931541;150;27435;-78
2024/01/03 08:40:51;;;;;;;2.65;1.10;;;13.70;99.90;;;;;;968417;146;27318;-79
2024/01/03 08:43:18;;;;;;;1.12;0.98;;;13.70;99.90;;;;;;969263;146;27358;-79
2024/01/03 08:45:44;;;;;;;1.65;1.07;;;13.60;99.90;;;;;;969725;147;27314;-78
2024/01/03 08:48:11;;;;;;;3.23;1.17;;;13.60;99.90;;;;;;969882;147;27314;-82
2024/01/03 08:50:38;;;;;;;3.70;1.40;;;13.50;99.90;;;;;;969042;147;27236;-82
2024/01/03 08:53:04;;;;;;;1.47;1.15;;;13.50;99.90;;;;;;968555;147;27387;-81
2024/01/03 08:55:31;;;;;;;2.30;1.17;;;13.40;99.90;;;;;;968922;146;27345;-80
2024/01/03 08:57:58;;;;;;;3.55;1.12;;;13.40;99.90;;;;;;969462;147;27339;-81
2024/01/03 09:00:24;;;;;;;1.57;0.82;;;13.40;99.90;;;;;;969309;146;27231;-81
2024/01/03 09:02:50;;;;;;;1.90;1.17;;;13.40;99.90;;;;;;968856;146;27298;-81
2024/01/03 09:05:18;;;;;;;1.98;0.72;;;13.50;99.90;;;;;;968958;147;27756;-81
2024/01/03 09:07:46;;;;;;;2.58;1.12;;;13.50;99.90;;;;;;969711;147;27359;-81
2024/01/03 09:10:10;;;;;;;0.85;0.65;;;13.60;99.90;;;;;;968395;148;27379;-81
2024/01/03 09:12:37;;;;;;;1.07;0.98;;;13.60;99.90;;;;;;969254;146;27290;-81
2024/01/03 09:15:03;;;;;;;1.10;0.60;;;13.70;99.90;;;;;;970092;146;27447;-80
2024/01/03 09:17:30;;;;;;;1.02;0.85;;;13.70;99.90;;;;;;969963;146;27443;-80
2024/01/03 09:19:57;;;;;;;0.85;0.72;;;13.90;99.90;;;;;;969275;146;27358;-80
2024/01/03 09:22:23;;;;;;;2.37;0.75;;;13.90;99.90;;;;;;967510;146;27325;-80
2024/01/03 09:24:50;;;;;;;2.15;1.02;;;14.00;99.90;;;;;;968339;147;27874;-80
2024/01/03 09:27:17;;;;;;;1.55;0.90;;;14.10;99.90;;;;;;968227;146;27309;-80
2024/01/03 09:29:43;;;;;;;2.25;1.00;;;14.20;99.90;;;;;;967074;146;27349;-79
2024/01/03 09:32:10;;;;;;;2.40;1.30;;;14.30;99.90;;;;;;968483;147;27251;-81
2024/01/03 09:34:39;;;;;;;1.07;0.98;;;14.30;98.90;;;;;;967856;146;27303;-81
2024/01/03 09:37:06;;;;;;;1.95;0.78;;;14.40;99.00;;;;;;967933;146;27322;-80
2024/01/03 09:39:32;;;;;;;1.57;0.98;;;14.40;98.50;;;;;;967309;146;27306;-81
2024/01/03 09:41:59;;;;;;;1.67;0.88;;;14.40;98.50;;;;;;968719;147;27278;-81
2024/01/03 09:44:25;;;;;;;1.57;1.02;;;14.50;98.60;;;;;;968199;147;27425;-80
2024/01/03 09:46:52;;;;;;;3.50;0.93;;;14.50;98.40;;;;;;968405;146;27326;-79
2024/01/03 09:49:19;;;;;;;1.07;0.78;;;14.50;98.20;;;;;;967654;146;27288;-81
2024/01/03 09:51:45;;;;;;;1.55;0.85;;;14.60;98.10;;;;;;968181;147;27298;-81
2024/01/03 09:54:12;;;;;;;1.82;0.93;;;14.60;97.80;;;;;;967190;147;27306;-82
2024/01/03 09:56:39;;;;;;;1.67;0.80;;;14.70;97.70;;;;;;967875;147;27319;-81
2024/01/03 09:59:05;;;;;;;2.10;0.78;;;14.70;97.40;;;;;;967420;146;27389;-85
2024/01/03 10:01:32;;;;;;;1.57;0.80;;;14.70;97.10;;;;;;968674;146;27388;-85
2024/01/03 10:03:58;;;;;;;1.50;0.80;;;14.80;96.80;;;;;;968213;148;27255;-86
2024/01/03 10:06:26;;;;;;;2.10;0.80;;;14.80;96.90;;;;;;967646;146;27335;-82
2024/01/03 10:08:58;;;;;;;2.50;0.85;;;14.90;97.00;;;;;;967807;147;27353;-85
2024/01/03 10:11:24;;;;;;;2.55;1.00;;;14.90;97.20;;;;;;947021;149;27405;-86
2024/01/03 10:13:50;;;;;;;1.37;1.00;;;15.00;96.90;;;;;;919720;152;27379;-84
2024/01/03 10:16:26;;;;;;;2.33;1.00;;;15.00;96.70;;;;;;934312;150;27296;-83
2024/01/03 10:19:02;;;;;;;0.68;0.68;;;15.10;96.10;;;;;;928748;153;27412;-86
2024/01/03 10:21:29;;;;;;;3.27;1.10;;;15.10;95.70;;;;;;935362;147;27833;-87
2024/01/03 10:23:55;;;;;;;1.87;0.85;;;15.20;95.40;;;;;;968186;148;27285;-85
2024/01/03 10:26:28;;;;;;;1.27;0.70;;;15.20;95.00;;;;;;967466;147;27317;-85
2024/01/03 10:28:54;;;;;;;2.95;0.95;;;15.20;94.40;;;;;;969879;147;27266;-84
2024/01/03 10:31:24;;;;;;;1.77;0.78;;;15.20;94.60;;;;;;964585;147;27335;-80
2024/01/03 10:33:51;;;;;;;3.42;1.00;;;15.20;94.50;;;;;;968744;148;27323;-86
2024/01/03 10:36:17;;;;;;;2.47;0.90;;;15.20;94.30;;;;;;969652;147;27297;-85
2024/01/03 10:38:44;;;;;;;1.70;1.30;;;15.20;94.20;;;;;;969381;147;27290;-79
2024/01/03 10:41:10;;;;;;;1.60;1.00;;;15.20;94.50;;;;;;969839;148;27379;-81
2024/01/03 10:43:37;;;;;;;1.90;1.00;;;15.20;94.70;;;;;;969402;147;27331;-85
2024/01/03 10:46:04;;;;;;;2.95;0.93;;;15.30;94.60;;;;;;970026;147;27254;-85
2024/01/03 10:48:30;;;;;;;3.62;1.12;;;15.20;94.40;;;;;;969625;147;27287;-85
2024/01/03 10:50:57;;;;;;;1.80;0.90;;;15.30;94.50;;;;;;970458;147;27364;-82
2024/01/03 10:53:23;;;;;;;1.62;0.98;;;15.30;94.20;;;;;;969485;147;27389;-85
2024/01/03 10:55:50;;;;;;;4.70;1.00;;;15.30;94.20;;;;;;969520;147;27295;-85
2024/01/03 10:58:17;;;;;;;1.75;1.00;;;15.30;94.20;;;;;;968376;147;27459;-86
2024/01/03 11:00:49;;;;;;;4.25;1.20;;;15.30;94.20;;;;;;968642;147;27361;-85
2024/01/03 11:03:34;;;;;;;2.65;1.40;;;15.40;94.40;;;;;;968813;147;27424;-85
2024/01/03 11:06:19;;;;;;;2.75;1.42;;;15.50;94.20;;;;;;968952;146;27298;-85
2024/01/03 11:08:51;;;;;;;4.10;1.37;;;15.60;94.20;;;;;;969213;147;27336;-77
2024/01/03 11:11:29;;;;;;;4.03;1.47;;;15.60;93.80;;;;;;969712;147;27738;-78
2024/01/03 11:13:57;;;;;;;4.12;1.27;;;15.80;93.30;;;;;;967721;148;27921;-77
2024/01/03 11:16:37;;;;;;;3.95;1.15;;;15.80;92.90;;;;;;968483;148;27912;-78
2024/01/03 11:19:04;;;;;;;2.55;1.10;;;15.90;92.70;;;;;;969525;147;27268;-77
2024/01/03 11:21:35;;;;;;;2.20;1.10;;;16.00;92.20;;;;;;969350;147;27287;-79
2024/01/03 11:23:59;;;;;;;2.33;1.17;;;16.10;91.60;;;;;;969954;147;27342;-77
2024/01/03 11:26:53;;;;;;;3.90;1.30;;;16.20;91.20;;;;;;969150;147;27248;-78
2024/01/03 11:29:45;;;;;;;3.62;1.30;;;16.30;90.40;;;;;;969117;147;27420;-77
2024/01/03 11:32:13;;;;;;;5.67;1.30;;;16.30;88.30;;;;;;967330;147;27271;-77
2024/01/03 11:34:44;;;;;;;2.90;1.17;;;16.30;88.00;;;;;;968485;147;27267;-81
2024/01/03 11:37:10;;;;;;;10.28;4.12;;;16.30;87.60;;;;;;968508;147;27262;-77
2024/01/03 11:39:36;;;;;;;3.42;1.80;;;16.30;87.10;;;;;;968974;147;27342;-78
2024/01/03 11:42:03;;;;;;;3.67;1.60;;;16.30;86.90;;;;;;969506;148;27361;-78
2024/01/03 11:44:29;;;;;;;3.90;1.47;;;16.30;87.60;;;;;;969033;147;27402;-78
2024/01/03 11:46:59;;;;;;;1.90;1.10;;;16.30;86.60;;;;;;969268;147;28429;-78
2024/01/03 11:49:26;;;;;;;3.33;1.17;;;16.30;86.20;;;;;;968752;148;27227;-78
2024/01/03 11:51:52;;;;;;;2.45;1.57;;;16.30;85.60;;;;;;970234;148;27301;-78
2024/01/03 11:54:19;;;;;;;2.72;1.35;;;16.30;85.60;;;;;;970036;148;27279;-79
2024/01/03 11:56:45;;;;;;;2.02;1.35;;;16.20;85.40;;;;;;970079;147;27330;-78
2024/01/03 11:59:12;;;;;;;2.60;1.20;;;16.20;84.80;;;;;;969573;146;27228;-79
2024/01/03 12:01:38;;;;;;;4.83;1.40;;;16.10;85.10;;;;;;968747;147;27282;-78
2024/01/03 12:04:08;;;;;;;2.85;1.50;;;16.00;85.30;;;;;;969829;146;27364;-79
2024/01/03 12:06:35;;;;;;;3.45;1.45;;;16.00;85.90;;;;;;968933;147;27335;-79
2024/01/03 12:09:02;;;;;;;3.52;1.47;;;15.90;85.00;;;;;;968571;146;27370;-78
2024/01/03 12:11:28;;;;;;;7.95;1.55;;;15.90;85.10;;;;;;968761;148;27259;-78
2024/01/03 12:13:55;;;;;;;4.00;1.50;;;15.80;85.40;;;;;;969872;147;27369;-78
2024/01/03 12:16:21;;;;;;;2.95;1.45;;;15.80;84.50;;;;;;969216;146;27272;-82
2024/01/03 12:18:50;;;;;;;2.67;1.12;;;15.70;84.80;;;;;;969223;147;27396;-78
2024/01/03 12:21:17;;;;;;;5.42;1.70;;;15.70;84.80;;;;;;969637;146;27327;-79
2024/01/03 12:23:53;;;;;;;3.45;1.67;;;15.70;85.10;;;;;;970160;146;27267;-79
2024/01/03 12:26:19;;;;;;;4.90;1.75;;;15.70;85.00;;;;;;968824;147;27376;-82
2024/01/03 12:28:46;;;;;;;3.62;1.32;;;15.70;85.70;;;;;;970281;147;27353;-77
2024/01/03 12:31:18;;;;;;;4.67;1.92;;;15.70;85.40;;;;;;969656;147;27252;-79
2024/01/03 12:33:45;;;;;;;2.55;1.65;;;15.70;85.10;;;;;;920897;152;27330;-79
2024/01/03 12:36:11;;;;;;;4.83;1.90;;;15.70;85.40;;;;;;942010;151;27349;-82
2024/01/03 12:38:40;;;;;;;2.95;1.62;;;15.70;85.40;;;;;;941727;150;27716;-78
2024/01/03 12:41:04;;;;;;;3.40;1.47;;;15.70;85.30;;;;;;936015;151;27311;-78
2024/01/03 12:43:33;;;;;;;3.95;1.80;;;15.70;85.30;;;;;;933615;151;27420;-78
2024/01/03 12:45:58;;;;;;;7.08;1.95;;;15.70;84.80;;;;;;931402;151;27304;-80
2024/01/03 12:48:24;;;;;;;2.20;1.32;;;15.70;84.50;;;;;;934619;150;27363;-77